sensor_id;sensor_type;location;lat;lon;timestamp;pressure;altitude;pressure_sealevel;temperature;humidity
76321;BME280;65132;52.088;5.402;2023-08-24T00:01:45;101867.47;;;16.55;100.00
76321;BME280;65132;52.088;5.402;2023-08-24T00:04:16;101866.91;;;16.34;100.00
76321;BME280;65132;52.088;5.402;2023-08-24T00:06:47;101862.22;;;16.27;100.00
76321;BME280;65132;52.088;5.402;2023-08-24T00:09:19;101856.75;;;16.27;100.00
76321;BME280;65132;52.088;5.402;2023-08-24T00:11:51;101849.66;;;16.34;100.00
76321;BME280;65132;52.088;5.402;2023-08-24T00:14:20;101853.56;;;16.31;100.00
76321;BME280;65132;52.088;5.402;2023-08-24T00:16:47;101847.00;;;16.24;100.00
76321;BME280;65132;52.088;5.402;2023-08-24T00:19:13;101863.53;;;16.23;100.00
76321;BME280;65132;52.088;5.402;2023-08-24T00:21:45;101855.44;;;16.13;100.00
76321;BME280;65132;52.088;5.402;2023-08-24T00:24:22;101849.63;;;15.99;100.00
76321;BME280;65132;52.088;5.402;2023-08-24T00:26:55;101846.06;;;15.98;100.00
76321;BME280;65132;52.088;5.402;2023-08-24T00:29:30;101851.22;;;16.01;100.00
76321;BME280;65132;52.088;5.402;2023-08-24T00:32:00;101850.66;;;15.98;100.00
76321;BME280;65132;52.088;5.402;2023-08-24T00:34:27;101849.25;;;15.94;100.00
76321;BME280;65132;52.088;5.402;2023-08-24T00:37:05;101847.53;;;15.93;100.00
76321;BME280;65132;52.088;5.402;2023-08-24T00:39:35;101833.34;;;16.07;100.00
76321;BME280;65132;52.088;5.402;2023-08-24T00:42:09;101822.13;;;16.10;100.00
76321;BME280;65132;52.088;5.402;2023-08-24T00:44:38;101819.44;;;16.18;100.00
76321;BME280;65132;52.088;5.402;2023-08-24T00:47:07;101813.44;;;16.14;100.00
76321;BME280;65132;52.088;5.402;2023-08-24T00:49:35;101823.38;;;16.15;100.00
76321;BME280;65132;52.088;5.402;2023-08-24T00:52:03;101822.19;;;16.18;100.00
76321;BME280;65132;52.088;5.402;2023-08-24T00:54:29;101832.09;;;16.19;100.00
76321;BME280;65132;52.088;5.402;2023-08-24T00:56:58;101819.88;;;16.05;100.00
76321;BME280;65132;52.088;5.402;2023-08-24T00:59:27;101815.56;;;16.03;100.00
76321;BME280;65132;52.088;5.402;2023-08-24T01:01:54;101804.16;;;16.07;100.00
76321;BME280;65132;52.088;5.402;2023-08-24T01:04:29;101815.72;;;16.19;100.00
76321;BME280;65132;52.088;5.402;2023-08-24T01:07:00;101821.84;;;16.21;100.00
76321;BME280;65132;52.088;5.402;2023-08-24T01:09:26;101838.97;;;16.23;100.00
76321;BME280;65132;52.088;5.402;2023-08-24T01:12:04;101837.56;;;16.19;100.00
76321;BME280;65132;52.088;5.402;2023-08-24T01:17:42;101833.97;;;16.18;100.00
76321;BME280;65132;52.088;5.402;2023-08-24T01:20:10;101832.94;;;16.19;100.00
76321;BME280;65132;52.088;5.402;2023-08-24T01:26:14;101828.75;;;16.25;100.00
76321;BME280;65132;52.088;5.402;2023-08-24T01:28:43;101825.22;;;16.15;100.00
76321;BME280;65132;52.088;5.402;2023-08-24T01:31:17;101819.22;;;16.29;100.00
76321;BME280;65132;52.088;5.402;2023-08-24T01:33:51;101811.97;;;16.20;100.00
76321;BME280;65132;52.088;5.402;2023-08-24T01:36:23;101813.75;;;16.11;100.00
76321;BME280;65132;52.088;5.402;2023-08-24T01:39:14;101816.09;;;16.06;100.00
76321;BME280;65132;52.088;5.402;2023-08-24T01:41:52;101820.63;;;16.15;100.00
76321;BME280;65132;52.088;5.402;2023-08-24T01:44:22;101824.59;;;16.21;100.00
76321;BME280;65132;52.088;5.402;2023-08-24T01:47:00;101828.56;;;16.26;100.00
76321;BME280;65132;52.088;5.402;2023-08-24T01:49:36;101837.03;;;16.15;100.00
76321;BME280;65132;52.088;5.402;2023-08-24T01:52:05;101849.66;;;16.16;100.00
76321;BME280;65132;52.088;5.402;2023-08-24T01:54:36;101842.88;;;16.20;100.00
76321;BME280;65132;52.088;5.402;2023-08-24T01:57:06;101831.25;;;16.18;100.00
76321;BME280;65132;52.088;5.402;2023-08-24T01:59:39;101824.47;;;16.22;100.00
76321;BME280;65132;52.088;5.402;2023-08-24T02:02:14;101824.84;;;16.27;100.00
76321;BME280;65132;52.088;5.402;2023-08-24T02:04:45;101804.53;;;16.30;100.00
76321;BME280;65132;52.088;5.402;2023-08-24T02:07:15;101806.66;;;16.36;100.00
76321;BME280;65132;52.088;5.402;2023-08-24T02:09:44;101805.78;;;16.35;100.00
76321;BME280;65132;52.088;5.402;2023-08-24T02:12:13;101811.09;;;16.37;100.00
76321;BME280;65132;52.088;5.402;2023-08-24T02:14:39;101806.16;;;16.40;100.00
76321;BME280;65132;52.088;5.402;2023-08-24T02:17:08;101808.28;;;16.46;100.00
76321;BME280;65132;52.088;5.402;2023-08-24T02:19:42;101819.50;;;16.43;100.00
76321;BME280;65132;52.088;5.402;2023-08-24T02:22:10;101808.28;;;16.46;100.00
76321;BME280;65132;52.088;5.402;2023-08-24T02:24:46;101814.28;;;16.50;100.00
76321;BME280;65132;52.088;5.402;2023-08-24T02:27:20;101811.47;;;16.42;100.00
76321;BME280;65132;52.088;5.402;2023-08-24T02:29:46;101803.09;;;16.43;100.00
76321;BME280;65132;52.088;5.402;2023-08-24T02:32:13;101798.47;;;16.36;100.00
76321;BME280;65132;52.088;5.402;2023-08-24T02:34:44;101790.75;;;16.14;100.00
76321;BME280;65132;52.088;5.402;2023-08-24T02:37:13;101775.06;;;15.81;100.00
76321;BME280;65132;52.088;5.402;2023-08-24T02:39:41;101761.91;;;15.76;100.00
76321;BME280;65132;52.088;5.402;2023-08-24T02:42:11;101740.88;;;15.77;100.00
76321;BME280;65132;52.088;5.402;2023-08-24T02:44:37;101722.16;;;15.82;100.00
76321;BME280;65132;52.088;5.402;2023-08-24T02:47:06;101692.94;;;15.92;100.00
76321;BME280;65132;52.088;5.402;2023-08-24T02:49:38;101685.34;;;16.03;100.00
76321;BME280;65132;52.088;5.402;2023-08-24T02:52:24;101692.97;;;16.17;100.00
76321;BME280;65132;52.088;5.402;2023-08-24T02:54:51;101702.47;;;16.31;100.00
76321;BME280;65132;52.088;5.402;2023-08-24T02:57:17;101715.50;;;16.45;100.00
76321;BME280;65132;52.088;5.402;2023-08-24T02:59:44;101716.63;;;16.52;100.00
76321;BME280;65132;52.088;5.402;2023-08-24T03:02:10;101719.34;;;16.52;100.00
76321;BME280;65132;52.088;5.402;2023-08-24T03:04:38;101713.88;;;16.52;100.00
76321;BME280;65132;52.088;5.402;2023-08-24T03:07:10;101705.22;;;16.56;100.00
76321;BME280;65132;52.088;5.402;2023-08-24T03:09:42;101704.03;;;16.59;100.00
76321;BME280;65132;52.088;5.402;2023-08-24T03:12:08;101715.28;;;16.56;100.00
76321;BME280;65132;52.088;5.402;2023-08-24T03:14:37;101708.75;;;16.49;100.00
76321;BME280;65132;52.088;5.402;2023-08-24T03:17:07;101713.09;;;16.42;100.00
76321;BME280;65132;52.088;5.402;2023-08-24T03:19:43;101712.03;;;16.35;100.00
76321;BME280;65132;52.088;5.402;2023-08-24T03:22:12;101706.03;;;16.31;100.00
76321;BME280;65132;52.088;5.402;2023-08-24T03:24:45;101702.47;;;16.31;100.00
76321;BME280;65132;52.088;5.402;2023-08-24T03:27:34;101698.00;;;16.30;100.00
76321;BME280;65132;52.088;5.402;2023-08-24T03:29:59;101693.56;;;16.29;100.00
76321;BME280;65132;52.088;5.402;2023-08-24T03:32:27;101688.44;;;16.26;100.00
76321;BME280;65132;52.088;5.402;2023-08-24T03:35:16;101693.72;;;16.27;100.00
76321;BME280;65132;52.088;5.402;2023-08-24T03:37:48;101690.66;;;16.30;100.00
76321;BME280;65132;52.088;5.402;2023-08-24T03:40:35;101682.44;;;16.22;100.00
76321;BME280;65132;52.088;5.402;2023-08-24T03:43:02;101688.72;;;16.23;100.00
76321;BME280;65132;52.088;5.402;2023-08-24T03:45:33;101686.69;;;16.25;100.00
76321;BME280;65132;52.088;5.402;2023-08-24T03:47:59;101688.19;;;16.19;100.00
76321;BME280;65132;52.088;5.402;2023-08-24T03:50:31;101687.50;;;16.17;100.00
76321;BME280;65132;52.088;5.402;2023-08-24T03:52:59;101679.78;;;16.13;100.00
76321;BME280;65132;52.088;5.402;2023-08-24T03:55:27;101685.19;;;16.05;100.00
76321;BME280;65132;52.088;5.402;2023-08-24T03:57:54;101677.72;;;15.89;100.00
76321;BME280;65132;52.088;5.402;2023-08-24T04:00:39;101677.50;;;15.83;100.00
76321;BME280;65132;52.088;5.402;2023-08-24T04:03:14;101670.94;;;15.76;100.00
76321;BME280;65132;52.088;5.402;2023-08-24T04:05:47;101665.88;;;15.81;100.00
76321;BME280;65132;52.088;5.402;2023-08-24T04:08:15;101662.59;;;15.77;100.00
76321;BME280;65132;52.088;5.402;2023-08-24T04:10:42;101668.75;;;15.79;100.00
76321;BME280;65132;52.088;5.402;2023-08-24T04:13:20;101661.91;;;15.75;100.00
76321;BME280;65132;52.088;5.402;2023-08-24T04:15:46;101669.78;;;15.78;100.00
76321;BME280;65132;52.088;5.402;2023-08-24T04:18:19;101675.69;;;15.74;100.00
76321;BME280;65132;52.088;5.402;2023-08-24T04:20:46;101670.88;;;15.68;100.00
76321;BME280;65132;52.088;5.402;2023-08-24T04:23:15;101673.78;;;15.66;100.00
76321;BME280;65132;52.088;5.402;2023-08-24T04:25:43;101680.88;;;15.59;100.00
76321;BME280;65132;52.088;5.402;2023-08-24T04:28:15;101681.88;;;15.58;100.00
76321;BME280;65132;52.088;5.402;2023-08-24T04:30:57;101684.59;;;15.58;100.00
76321;BME280;65132;52.088;5.402;2023-08-24T04:33:23;101684.91;;;15.55;100.00
76321;BME280;65132;52.088;5.402;2023-08-24T04:35:52;101680.31;;;15.55;100.00
76321;BME280;65132;52.088;5.402;2023-08-24T04:38:18;101678.75;;;15.53;100.00
76321;BME280;65132;52.088;5.402;2023-08-24T04:43:17;101690.53;;;15.53;100.00
76321;BME280;65132;52.088;5.402;2023-08-24T04:45:52;101692.72;;;15.50;100.00
76321;BME280;65132;52.088;5.402;2023-08-24T04:48:35;101688.66;;;15.54;100.00
76321;BME280;65132;52.088;5.402;2023-08-24T04:51:05;101692.00;;;15.48;100.00
76321;BME280;65132;52.088;5.402;2023-08-24T04:53:38;101677.13;;;15.42;100.00
76321;BME280;65132;52.088;5.402;2023-08-24T04:56:15;101675.13;;;15.35;100.00
76321;BME280;65132;52.088;5.402;2023-08-24T04:59:02;101670.53;;;15.35;100.00
76321;BME280;65132;52.088;5.402;2023-08-24T05:01:31;101673.69;;;15.40;100.00
76321;BME280;65132;52.088;5.402;2023-08-24T05:03:58;101682.00;;;15.39;100.00
76321;BME280;65132;52.088;5.402;2023-08-24T05:06:27;101676.44;;;15.40;100.00
76321;BME280;65132;52.088;5.402;2023-08-24T05:09:07;101682.44;;;15.34;100.00
76321;BME280;65132;52.088;5.402;2023-08-24T05:11:39;101689.66;;;15.35;100.00
76321;BME280;65132;52.088;5.402;2023-08-24T05:14:09;101685.44;;;15.41;100.00
76321;BME280;65132;52.088;5.402;2023-08-24T05:16:38;101683.66;;;15.49;100.00
76321;BME280;65132;52.088;5.402;2023-08-24T05:19:07;101674.00;;;15.55;100.00
76321;BME280;65132;52.088;5.402;2023-08-24T05:21:36;101673.06;;;15.64;100.00
76321;BME280;65132;52.088;5.402;2023-08-24T05:24:02;101663.09;;;15.73;100.00
76321;BME280;65132;52.088;5.402;2023-08-24T05:26:37;101659.09;;;15.85;100.00
76321;BME280;65132;52.088;5.402;2023-08-24T05:29:07;101663.75;;;15.92;100.00
76321;BME280;65132;52.088;5.402;2023-08-24T05:31:33;101646.19;;;15.95;100.00
76321;BME280;65132;52.088;5.402;2023-08-24T05:34:02;101650.00;;;16.02;100.00
76321;BME280;65132;52.088;5.402;2023-08-24T05:36:29;101645.31;;;16.12;100.00
76321;BME280;65132;52.088;5.402;2023-08-24T05:39:02;101642.78;;;16.18;100.00
76321;BME280;65132;52.088;5.402;2023-08-24T05:41:34;101645.22;;;16.29;100.00
76321;BME280;65132;52.088;5.402;2023-08-24T05:44:03;101645.28;;;16.37;100.00
76321;BME280;65132;52.088;5.402;2023-08-24T05:46:29;101647.38;;;16.43;100.00
76321;BME280;65132;52.088;5.402;2023-08-24T05:48:58;101638.56;;;16.49;100.00
76321;BME280;65132;52.088;5.402;2023-08-24T05:51:25;101636.22;;;16.62;100.00
76321;BME280;65132;52.088;5.402;2023-08-24T05:53:51;101626.00;;;16.72;100.00
76321;BME280;65132;52.088;5.402;2023-08-24T05:56:31;101624.88;;;16.83;100.00
76321;BME280;65132;52.088;5.402;2023-08-24T05:58:58;101616.03;;;16.97;100.00
76321;BME280;65132;52.088;5.402;2023-08-24T06:01:30;101630.06;;;17.10;100.00
76321;BME280;65132;52.088;5.402;2023-08-24T06:04:05;101618.13;;;17.19;100.00
76321;BME280;65132;52.088;5.402;2023-08-24T06:06:43;101613.53;;;17.36;100.00
76321;BME280;65132;52.088;5.402;2023-08-24T06:09:13;101614.41;;;17.44;100.00
76321;BME280;65132;52.088;5.402;2023-08-24T06:11:40;101615.97;;;17.55;100.00
76321;BME280;65132;52.088;5.402;2023-08-24T06:14:19;101618.88;;;17.69;100.00
76321;BME280;65132;52.088;5.402;2023-08-24T06:16:51;101608.28;;;17.74;100.00
76321;BME280;65132;52.088;5.402;2023-08-24T06:19:18;101608.63;;;17.87;100.00
76321;BME280;65132;52.088;5.402;2023-08-24T06:21:44;101596.59;;;17.97;100.00
76321;BME280;65132;52.088;5.402;2023-08-24T06:24:13;101596.94;;;18.10;100.00
76321;BME280;65132;52.088;5.402;2023-08-24T06:26:43;101595.19;;;18.25;100.00
76321;BME280;65132;52.088;5.402;2023-08-24T06:29:10;101585.88;;;18.34;100.00
76321;BME280;65132;52.088;5.402;2023-08-24T06:31:37;101584.19;;;18.49;100.00
76321;BME280;65132;52.088;5.402;2023-08-24T06:34:06;101576.53;;;18.67;100.00
76321;BME280;65132;52.088;5.402;2023-08-24T06:36:36;101572.69;;;18.84;100.00
76321;BME280;65132;52.088;5.402;2023-08-24T06:39:03;101575.38;;;18.92;100.00
76321;BME280;65132;52.088;5.402;2023-08-24T06:41:33;101574.44;;;19.07;100.00
76321;BME280;65132;52.088;5.402;2023-08-24T06:44:05;101569.47;;;19.26;100.00
76321;BME280;65132;52.088;5.402;2023-08-24T06:46:32;101571.41;;;19.25;100.00
76321;BME280;65132;52.088;5.402;2023-08-24T06:48:59;101574.63;;;19.51;100.00
76321;BME280;65132;52.088;5.402;2023-08-24T06:51:26;101560.00;;;19.73;100.00
76321;BME280;65132;52.088;5.402;2023-08-24T06:53:56;101554.75;;;19.86;100.00
76321;BME280;65132;52.088;5.402;2023-08-24T06:56:25;101551.03;;;19.79;100.00
76321;BME280;65132;52.088;5.402;2023-08-24T06:58:51;101549.94;;;19.88;100.00
76321;BME280;65132;52.088;5.402;2023-08-24T07:01:18;101547.56;;;20.14;100.00
76321;BME280;65132;52.088;5.402;2023-08-24T07:03:44;101555.25;;;20.04;100.00
76321;BME280;65132;52.088;5.402;2023-08-24T07:06:11;101559.94;;;20.18;100.00
76321;BME280;65132;52.088;5.402;2023-08-24T07:08:40;101559.59;;;19.99;100.00
76321;BME280;65132;52.088;5.402;2023-08-24T07:11:06;101550.69;;;20.11;100.00
76321;BME280;65132;52.088;5.402;2023-08-24T07:13:35;101545.59;;;20.23;100.00
76321;BME280;65132;52.088;5.402;2023-08-24T07:16:05;101538.41;;;20.22;100.00
76321;BME280;65132;52.088;5.402;2023-08-24T07:18:34;101539.34;;;20.44;100.00
76321;BME280;65132;52.088;5.402;2023-08-24T07:21:06;101531.34;;;20.63;100.00
76321;BME280;65132;52.088;5.402;2023-08-24T07:26:07;101549.34;;;20.80;100.00
76321;BME280;65132;52.088;5.402;2023-08-24T07:28:41;101552.63;;;21.47;100.00
76321;BME280;65132;52.088;5.402;2023-08-24T07:31:17;101545.13;;;21.83;100.00
76321;BME280;65132;52.088;5.402;2023-08-24T07:33:48;101545.53;;;22.08;100.00
76321;BME280;65132;52.088;5.402;2023-08-24T07:36:15;101542.19;;;21.42;100.00
76321;BME280;65132;52.088;5.402;2023-08-24T07:38:42;101548.69;;;21.77;100.00
76321;BME280;65132;52.088;5.402;2023-08-24T07:41:27;101537.84;;;22.03;100.00
76321;BME280;65132;52.088;5.402;2023-08-24T07:43:58;101535.75;;;21.78;99.44
76321;BME280;65132;52.088;5.402;2023-08-24T07:46:27;101539.38;;;22.46;99.72
76321;BME280;65132;52.088;5.402;2023-08-24T07:49:02;101540.03;;;22.96;94.76
76321;BME280;65132;52.088;5.402;2023-08-24T07:51:34;101549.97;;;22.90;94.89
76321;BME280;65132;52.088;5.402;2023-08-24T07:54:00;101547.66;;;22.87;95.79
76321;BME280;65132;52.088;5.402;2023-08-24T07:56:33;101542.31;;;23.52;91.72
76321;BME280;65132;52.088;5.402;2023-08-24T07:59:02;101540.97;;;24.27;88.91
76321;BME280;65132;52.088;5.402;2023-08-24T08:04:07;101546.88;;;23.19;88.89
76321;BME280;65132;52.088;5.402;2023-08-24T08:06:37;101547.72;;;23.13;91.04
76321;BME280;65132;52.088;5.402;2023-08-24T08:09:05;101555.47;;;23.70;88.81
76321;BME280;65132;52.088;5.402;2023-08-24T08:11:33;101544.38;;;23.31;88.06
76321;BME280;65132;52.088;5.402;2023-08-24T08:14:00;101549.84;;;23.18;88.03
76321;BME280;65132;52.088;5.402;2023-08-24T08:16:27;101533.31;;;23.31;88.71
76321;BME280;65132;52.088;5.402;2023-08-24T08:21:30;101530.81;;;24.01;85.01
76321;BME280;65132;52.088;5.402;2023-08-24T08:23:57;101526.78;;;23.58;84.73
76321;BME280;65132;52.088;5.402;2023-08-24T08:26:23;101526.16;;;23.49;87.84
76321;BME280;65132;52.088;5.402;2023-08-24T08:31:31;101528.03;;;23.68;85.95
76321;BME280;65132;52.088;5.402;2023-08-24T08:34:03;101518.50;;;23.64;83.73
76321;BME280;65132;52.088;5.402;2023-08-24T08:36:32;101519.78;;;23.75;83.66
76321;BME280;65132;52.088;5.402;2023-08-24T08:39:06;101504.88;;;23.43;86.44
76321;BME280;65132;52.088;5.402;2023-08-24T08:44:14;101498.50;;;23.43;85.41
76321;BME280;65132;52.088;5.402;2023-08-24T08:46:43;101497.19;;;23.91;84.50
76321;BME280;65132;52.088;5.402;2023-08-24T08:51:47;101486.31;;;23.96;82.85
76321;BME280;65132;52.088;5.402;2023-08-24T08:54:14;101484.84;;;23.94;83.40
76321;BME280;65132;52.088;5.402;2023-08-24T08:56:43;101480.59;;;23.91;83.36
76321;BME280;65132;52.088;5.402;2023-08-24T08:59:14;101461.03;;;23.99;83.23
76321;BME280;65132;52.088;5.402;2023-08-24T09:01:41;101455.69;;;24.11;82.86
76321;BME280;65132;52.088;5.402;2023-08-24T09:04:12;101448.69;;;23.95;81.53
76321;BME280;65132;52.088;5.402;2023-08-24T09:06:43;101442.22;;;24.27;82.55
76321;BME280;65132;52.088;5.402;2023-08-24T09:09:09;101437.59;;;24.08;80.75
76321;BME280;65132;52.088;5.402;2023-08-24T09:11:38;101437.34;;;24.73;80.85
76321;BME280;65132;52.088;5.402;2023-08-24T09:14:05;101438.28;;;25.48;78.30
76321;BME280;65132;52.088;5.402;2023-08-24T09:16:32;101436.72;;;25.03;76.08
76321;BME280;65132;52.088;5.402;2023-08-24T09:19:05;101430.63;;;25.68;75.80
76321;BME280;65132;52.088;5.402;2023-08-24T09:21:36;101430.50;;;25.99;74.53
76321;BME280;65132;52.088;5.402;2023-08-24T09:24:05;101431.91;;;26.26;71.85
76321;BME280;65132;52.088;5.402;2023-08-24T09:26:42;101433.63;;;26.09;72.34
76321;BME280;65132;52.088;5.402;2023-08-24T09:29:15;101433.69;;;26.39;70.55
76321;BME280;65132;52.088;5.402;2023-08-24T09:31:44;101417.69;;;26.34;68.87
76321;BME280;65132;52.088;5.402;2023-08-24T09:34:10;101423.00;;;26.36;69.50
76321;BME280;65132;52.088;5.402;2023-08-24T09:36:38;101419.16;;;26.84;70.28
76321;BME280;65132;52.088;5.402;2023-08-24T09:39:07;101414.97;;;27.46;67.90
76321;BME280;65132;52.088;5.402;2023-08-24T09:41:41;101408.53;;;27.69;67.63
76321;BME280;65132;52.088;5.402;2023-08-24T09:44:16;101401.06;;;27.58;66.75
76321;BME280;65132;52.088;5.402;2023-08-24T09:46:45;101398.75;;;27.78;65.72
76321;BME280;65132;52.088;5.402;2023-08-24T09:49:21;101407.47;;;27.70;66.59
76321;BME280;65132;52.088;5.402;2023-08-24T09:52:02;101404.78;;;27.29;66.69
76321;BME280;65132;52.088;5.402;2023-08-24T09:54:38;101409.34;;;27.23;68.42
76321;BME280;65132;52.088;5.402;2023-08-24T09:57:09;101413.56;;;26.25;69.84
76321;BME280;65132;52.088;5.402;2023-08-24T09:59:39;101420.66;;;26.21;71.80
76321;BME280;65132;52.088;5.402;2023-08-24T10:02:20;101418.19;;;25.52;73.65
76321;BME280;65132;52.088;5.402;2023-08-24T10:04:51;101410.97;;;25.20;74.99
76321;BME280;65132;52.088;5.402;2023-08-24T10:07:22;101424.41;;;25.23;76.87
76321;BME280;65132;52.088;5.402;2023-08-24T10:10:07;101424.34;;;25.30;76.44
76321;BME280;65132;52.088;5.402;2023-08-24T10:12:47;101432.50;;;24.94;77.71
76321;BME280;65132;52.088;5.402;2023-08-24T10:15:14;101429.53;;;24.51;79.37
76321;BME280;65132;52.088;5.402;2023-08-24T10:17:44;101424.63;;;24.09;81.94
76321;BME280;65132;52.088;5.402;2023-08-24T10:20:11;101420.41;;;24.00;82.23
76321;BME280;65132;52.088;5.402;2023-08-24T10:22:38;101414.66;;;23.88;83.45
76321;BME280;65132;52.088;5.402;2023-08-24T10:25:05;101416.56;;;23.88;84.51
76321;BME280;65132;52.088;5.402;2023-08-24T10:27:33;101409.56;;;23.79;87.04
76321;BME280;65132;52.088;5.402;2023-08-24T10:30:00;101414.94;;;23.60;87.34
76321;BME280;65132;52.088;5.402;2023-08-24T10:32:28;101401.13;;;23.54;87.76
76321;BME280;65132;52.088;5.402;2023-08-24T10:34:55;101405.38;;;23.50;91.15
76321;BME280;65132;52.088;5.402;2023-08-24T10:37:26;101398.19;;;23.42;91.73
76321;BME280;65132;52.088;5.402;2023-08-24T10:39:53;101394.34;;;23.43;95.70
76321;BME280;65132;52.088;5.402;2023-08-24T10:42:48;101390.94;;;23.48;98.44
76321;BME280;65132;52.088;5.402;2023-08-24T10:45:22;101391.56;;;23.43;97.68
76321;BME280;65132;52.088;5.402;2023-08-24T10:47:51;101398.34;;;23.60;100.00
76321;BME280;65132;52.088;5.402;2023-08-24T10:50:18;101401.94;;;23.74;97.88
76321;BME280;65132;52.088;5.402;2023-08-24T10:52:45;101398.53;;;23.85;100.00
76321;BME280;65132;52.088;5.402;2023-08-24T10:55:24;101394.91;;;23.78;97.76
76321;BME280;65132;52.088;5.402;2023-08-24T10:58:00;101395.72;;;23.92;95.87
76321;BME280;65132;52.088;5.402;2023-08-24T11:00:54;101395.09;;;23.90;96.52
76321;BME280;65132;52.088;5.402;2023-08-24T11:03:34;101386.00;;;23.76;97.66
76321;BME280;65132;52.088;5.402;2023-08-24T11:06:17;101388.56;;;23.71;99.59
76321;BME280;65132;52.088;5.402;2023-08-24T11:08:49;101387.47;;;23.72;99.14
76321;BME280;65132;52.088;5.402;2023-08-24T11:11:29;101381.09;;;23.78;99.65
76321;BME280;65132;52.088;5.402;2023-08-24T11:16:44;101384.97;;;23.64;100.00
76321;BME280;65132;52.088;5.402;2023-08-24T11:19:11;101386.69;;;23.52;99.60
76321;BME280;65132;52.088;5.402;2023-08-24T11:21:42;101371.78;;;23.53;97.24
76321;BME280;65132;52.088;5.402;2023-08-24T11:24:13;101376.47;;;23.59;100.00
76321;BME280;65132;52.088;5.402;2023-08-24T11:26:45;101358.38;;;23.63;99.89
76321;BME280;65132;52.088;5.402;2023-08-24T11:29:12;101350.94;;;23.63;97.76
76321;BME280;65132;52.088;5.402;2023-08-24T11:31:39;101356.41;;;23.83;98.73
76321;BME280;65132;52.088;5.402;2023-08-24T11:34:08;101345.69;;;24.06;97.52
76321;BME280;65132;52.088;5.402;2023-08-24T11:36:50;101330.09;;;24.18;98.18
76321;BME280;65132;52.088;5.402;2023-08-24T11:39:22;101326.94;;;24.15;96.72
76321;BME280;65132;52.088;5.402;2023-08-24T11:42:11;101315.63;;;24.23;95.26
76321;BME280;65132;52.088;5.402;2023-08-24T11:44:50;101321.59;;;24.51;97.54
76321;BME280;65132;52.088;5.402;2023-08-24T11:47:19;101307.03;;;24.68;97.51
76321;BME280;65132;52.088;5.402;2023-08-24T11:49:46;101307.78;;;24.82;96.10
76321;BME280;65132;52.088;5.402;2023-08-24T11:52:14;101308.75;;;24.88;94.67
76321;BME280;65132;52.088;5.402;2023-08-24T11:54:50;101305.28;;;24.99;93.91
76321;BME280;65132;52.088;5.402;2023-08-24T11:57:17;101306.28;;;25.04;92.66
76321;BME280;65132;52.088;5.402;2023-08-24T11:59:46;101312.09;;;25.21;91.25
76321;BME280;65132;52.088;5.402;2023-08-24T12:02:15;101308.84;;;25.24;89.18
76321;BME280;65132;52.088;5.402;2023-08-24T12:04:48;101316.66;;;25.33;85.72
76321;BME280;65132;52.088;5.402;2023-08-24T12:07:15;101311.47;;;25.19;85.20
76321;BME280;65132;52.088;5.402;2023-08-24T12:09:44;101310.75;;;25.48;85.93
76321;BME280;65132;52.088;5.402;2023-08-24T12:12:26;101309.56;;;25.91;83.14
76321;BME280;65132;52.088;5.402;2023-08-24T12:14:54;101301.34;;;25.85;83.68
76321;BME280;65132;52.088;5.402;2023-08-24T12:17:21;101291.00;;;25.62;83.05
76321;BME280;65132;52.088;5.402;2023-08-24T12:20:02;101284.16;;;26.13;83.43
76321;BME280;65132;52.088;5.402;2023-08-24T12:22:29;101285.81;;;26.43;83.04
76321;BME280;65132;52.088;5.402;2023-08-24T12:25:01;101281.66;;;26.64;82.63
76321;BME280;65132;52.088;5.402;2023-08-24T12:27:31;101272.78;;;26.96;81.63
76321;BME280;65132;52.088;5.402;2023-08-24T12:30:03;101270.59;;;27.10;80.76
76321;BME280;65132;52.088;5.402;2023-08-24T12:32:46;101267.81;;;26.75;79.94
76321;BME280;65132;52.088;5.402;2023-08-24T12:35:14;101265.66;;;26.48;83.11
76321;BME280;65132;52.088;5.402;2023-08-24T12:37:43;101253.59;;;26.42;81.56
76321;BME280;65132;52.088;5.402;2023-08-24T12:40:15;101257.03;;;26.26;82.04
76321;BME280;65132;52.088;5.402;2023-08-24T12:42:48;101241.41;;;26.43;81.59
76321;BME280;65132;52.088;5.402;2023-08-24T12:45:19;101223.88;;;26.31;80.98
76321;BME280;65132;52.088;5.402;2023-08-24T12:47:45;101207.84;;;26.56;80.33
76321;BME280;65132;52.088;5.402;2023-08-24T12:50:12;101204.69;;;26.41;82.31
76321;BME280;65132;52.088;5.402;2023-08-24T12:52:38;101202.41;;;26.50;80.25
76321;BME280;65132;52.088;5.402;2023-08-24T12:55:08;101203.31;;;26.73;80.72
76321;BME280;65132;52.088;5.402;2023-08-24T12:57:41;101198.22;;;26.82;79.61
76321;BME280;65132;52.088;5.402;2023-08-24T13:00:08;101182.50;;;27.34;78.58
76321;BME280;65132;52.088;5.402;2023-08-24T13:02:35;101175.75;;;28.47;73.20
76321;BME280;65132;52.088;5.402;2023-08-24T13:05:05;101172.28;;;28.52;73.30
76321;BME280;65132;52.088;5.402;2023-08-24T13:07:32;101171.94;;;28.86;71.63
76321;BME280;65132;52.088;5.402;2023-08-24T13:09:58;101163.25;;;28.83;71.34
76321;BME280;65132;52.088;5.402;2023-08-24T13:12:26;101170.78;;;28.82;67.96
76321;BME280;65132;52.088;5.402;2023-08-24T13:14:52;101183.63;;;29.65;69.48
76321;BME280;65132;52.088;5.402;2023-08-24T13:17:19;101186.66;;;28.15;69.17
76321;BME280;65132;52.088;5.402;2023-08-24T13:19:46;101198.09;;;28.64;69.13
76321;BME280;65132;52.088;5.402;2023-08-24T13:22:15;101215.25;;;28.11;70.95
76321;BME280;65132;52.088;5.402;2023-08-24T13:24:44;101210.81;;;28.43;66.81
76321;BME280;65132;52.088;5.402;2023-08-24T13:27:10;101215.81;;;28.13;68.45
76321;BME280;65132;52.088;5.402;2023-08-24T13:29:40;101211.88;;;28.09;69.95